Time;durP1;ratioP1;P1;durP2;ratioP2;P2;SDS_P1;SDS_P2;PMS_P1;PMS_P2;Temp;Humidity;BMP_temperature;BMP_pressure;BME280_temperature;BME280_humidity;BME280_pressure;Samples;Min_cycle;Max_cycle;Signal;HPM_P1;HPM_P2
2022/06/26 00:00:19;;;;;;;4.32;2.70;;;;;;;19.80;68.75;94881.31;4968534;28;20600;-68
2022/06/26 00:02:46;;;;;;;4.47;2.97;;;;;;;19.77;68.62;94879.88;4961306;28;20228;-67
2022/06/26 00:05:12;;;;;;;3.45;2.88;;;;;;;19.86;67.89;94887.63;4965599;28;20286;-68
2022/06/26 00:07:38;;;;;;;4.97;3.50;;;;;;;19.88;68.28;94891.72;4969838;28;20204;-69
2022/06/26 00:10:04;;;;;;;7.07;3.78;;;;;;;19.78;69.04;94892.19;4963150;28;20227;-68
2022/06/26 00:12:30;;;;;;;5.00;3.90;;;;;;;19.87;68.75;94879.44;4974588;28;20228;-68
2022/06/26 00:14:55;;;;;;;5.28;3.97;;;;;;;19.90;68.20;94889.69;4963606;28;20606;-68
2022/06/26 00:17:21;;;;;;;7.78;3.97;;;;;;;19.78;68.93;94892.19;4964864;28;20223;-69
2022/06/26 00:19:46;;;;;;;6.82;4.28;;;;;;;19.69;69.05;94884.63;4963096;28;20211;-68
2022/06/26 00:22:12;;;;;;;6.72;3.97;;;;;;;19.78;68.79;94892.19;4970838;28;20205;-68
2022/06/26 00:24:37;;;;;;;8.38;4.45;;;;;;;19.73;69.25;94889.34;4967378;28;20227;-68
2022/06/26 00:27:06;;;;;;;6.38;3.88;;;;;;;19.78;68.90;94897.53;4972850;28;20224;-68
2022/06/26 00:29:34;;;;;;;7.18;3.92;;;;;;;19.72;68.84;94895.69;4965635;28;20220;-69
2022/06/26 00:32:00;;;;;;;8.10;4.35;;;;;;;19.63;69.44;94894.28;4974861;28;20221;-68
2022/06/26 00:34:26;;;;;;;6.30;4.15;;;;;;;19.71;69.09;94886.06;4963146;28;20339;-69
2022/06/26 00:36:51;;;;;;;5.93;3.80;;;;;;;19.72;68.27;94881.53;4966708;28;20311;-68
2022/06/26 00:39:17;;;;;;;7.35;4.18;;;;;;;19.68;68.57;94885.69;4964772;28;20233;-68
2022/06/26 00:41:42;;;;;;;5.68;3.70;;;;;;;19.67;69.49;94879.50;4966015;28;20311;-68
2022/06/26 00:44:21;;;;;;;5.18;3.17;;;;;;;19.66;68.59;94879.69;4964326;28;20306;-68
2022/06/26 00:46:46;;;;;;;5.45;3.85;;;;;;;19.67;68.64;94882.16;4966115;28;20657;-68
2022/06/26 00:49:12;;;;;;;6.47;4.15;;;;;;;19.70;70.58;94883.59;4973403;28;20212;-68
2022/06/26 00:51:43;;;;;;;6.32;3.80;;;;;;;19.76;69.43;94885.44;4965591;28;20228;-68
2022/06/26 00:54:09;;;;;;;3.80;3.38;;;;;;;19.63;69.79;94880.13;4983032;28;20223;-68
2022/06/26 00:56:36;;;;;;;7.07;4.28;;;;;;;19.58;71.50;94881.56;4954161;28;20248;-68
2022/06/26 00:59:02;;;;;;;6.97;4.10;;;;;;;19.56;71.97;94874.81;4960957;28;20253;-69
2022/06/26 01:01:27;;;;;;;5.50;3.80;;;;;;;19.71;70.87;94880.72;4960016;28;20200;-69
2022/06/26 01:03:53;;;;;;;7.40;4.10;;;;;;;19.54;71.70;94882.19;4968266;28;20710;-67
2022/06/26 01:06:19;;;;;;;8.90;4.72;;;;;;;19.48;72.49;94883.03;4965080;28;20235;-69
2022/06/26 01:08:46;;;;;;;6.10;4.38;;;;;;;19.43;71.88;94882.84;4969733;28;20287;-68
2022/06/26 01:11:17;;;;;;;6.07;4.10;;;;;;;19.40;72.76;94881.41;4967915;28;20220;-68
2022/06/26 01:13:50;;;;;;;7.25;4.30;;;;;;;19.41;71.55;94883.06;4982347;28;20217;-69
2022/06/26 01:16:17;;;;;;;7.95;4.72;;;;;;;19.41;71.37;94891.06;4966885;28;20310;-70
2022/06/26 01:18:49;;;;;;;7.10;4.50;;;;;;;19.32;71.43;94893.13;4966562;28;20224;-68
2022/06/26 01:21:17;;;;;;;7.95;4.35;;;;;;;19.38;71.15;94891.50;4966749;28;20737;-68
2022/06/26 01:23:42;;;;;;;6.78;4.50;;;;;;;19.41;71.16;94893.75;4962169;28;20228;-68
2022/06/26 01:26:08;;;;;;;6.45;4.00;;;;;;;19.31;71.14;94894.16;4986779;28;20242;-69
2022/06/26 01:28:33;;;;;;;5.72;4.05;;;;;;;19.27;70.88;94882.28;4974150;28;20200;-68
2022/06/26 01:30:59;;;;;;;7.00;4.22;;;;;;;19.27;71.09;94890.28;4967874;28;20317;-68
2022/06/26 01:33:24;;;;;;;7.25;4.50;;;;;;;19.26;71.10;94882.50;4966080;28;20229;-69
2022/06/26 01:35:50;;;;;;;6.93;4.72;;;;;;;19.36;71.07;94890.88;4962038;28;20234;-68
2022/06/26 01:38:22;;;;;;;5.75;4.05;;;;;;;19.52;69.74;94894.94;4972957;28;20225;-68
2022/06/26 01:40:49;;;;;;;6.93;4.18;;;;;;;19.30;70.49;94897.88;4968986;28;20239;-69
2022/06/26 01:43:18;;;;;;;6.15;3.83;;;;;;;19.29;70.69;94893.53;4967286;28;20216;-68
2022/06/26 01:45:48;;;;;;;5.93;4.13;;;;;;;19.29;71.29;94898.06;4962407;28;20598;-68
2022/06/26 01:48:14;;;;;;;7.60;4.38;;;;;;;19.36;70.82;94898.88;4960859;28;20239;-68
2022/06/26 01:50:40;;;;;;;8.73;4.03;;;;;;;19.38;71.10;94899.50;4966522;28;20308;-69
2022/06/26 01:53:05;;;;;;;7.15;4.05;;;;;;;19.44;70.81;94905.84;4977739;28;20227;-68
2022/06/26 01:55:31;;;;;;;7.10;3.70;;;;;;;19.46;69.15;94903.75;4982940;28;20337;-68
2022/06/26 01:58:01;;;;;;;6.30;4.18;;;;;;;19.35;70.69;94908.72;4972300;28;20231;-68
2022/06/26 02:00:30;;;;;;;5.93;3.65;;;;;;;19.35;71.59;94911.38;4972961;28;21064;-68
2022/06/26 02:02:56;;;;;;;6.60;4.22;;;;;;;19.41;71.61;94914.25;4960578;28;20311;-68
2022/06/26 02:05:21;;;;;;;5.28;4.20;;;;;;;19.47;71.26;94922.22;4964249;28;20251;-68
2022/06/26 02:07:47;;;;;;;4.70;3.60;;;;;;;19.56;71.05;94923.63;4982574;28;20239;-68
2022/06/26 02:15:40;;;;;;;8.70;4.30;;;;;;;19.66;70.89;94925.03;4967965;28;20751;-68
2022/06/26 02:18:06;;;;;;;10.52;4.90;;;;;;;19.67;70.71;94930.19;4968201;28;20228;-68
2022/06/26 02:20:31;;;;;;;6.93;4.45;;;;;;;19.68;70.68;94933.69;4967851;28;20227;-68
2022/06/26 02:22:57;;;;;;;6.47;4.38;;;;;;;19.70;70.60;94924.44;4967039;28;20208;-68
2022/06/26 02:25:22;;;;;;;8.63;4.47;;;;;;;19.67;70.98;94922.19;4969808;28;20212;-68
2022/06/26 02:27:48;;;;;;;6.28;4.45;;;;;;;19.68;70.87;94923.03;4968203;28;20306;-68
2022/06/26 02:30:15;;;;;;;8.77;4.90;;;;;;;19.55;71.77;94923.84;4967954;28;20227;-68
2022/06/26 02:32:40;;;;;;;7.28;4.85;;;;;;;19.44;72.72;94924.50;4955116;28;20260;-68
2022/06/26 02:35:07;;;;;;;6.32;4.90;;;;;;;19.21;73.85;94916.94;4964916;28;20254;-68
2022/06/26 02:37:33;;;;;;;11.25;4.88;;;;;;;18.94;75.83;94915.13;4985242;28;20255;-68
2022/06/26 02:39:58;;;;;;;7.20;5.07;;;;;;;19.09;75.43;94909.59;4965147;28;20236;-68
2022/06/26 02:42:24;;;;;;;8.18;5.18;;;;;;;19.12;75.34;94916.34;4965842;28;20220;-69
2022/06/26 02:44:49;;;;;;;8.70;5.60;;;;;;;19.12;75.35;94919.00;4969740;28;20335;-68
2022/06/26 02:47:15;;;;;;;7.80;5.40;;;;;;;19.15;75.11;94926.59;4965381;28;20270;-68
2022/06/26 02:49:40;;;;;;;5.75;5.10;;;;;;;19.02;75.94;94923.94;4973400;28;20223;-68
2022/06/26 02:52:06;;;;;;;9.73;5.05;;;;;;;19.09;75.52;94925.56;4967541;28;20208;-68
2022/06/26 02:54:31;;;;;;;6.68;5.43;;;;;;;19.14;75.50;94936.44;4965425;28;20239;-68
2022/06/26 02:56:57;;;;;;;5.72;5.10;;;;;;;19.10;75.68;94935.19;4952818;28;20238;-68
2022/06/26 02:59:22;;;;;;;7.18;5.45;;;;;;;19.22;75.01;94935.41;4964736;28;20251;-68
2022/06/26 03:01:48;;;;;;;5.93;5.20;;;;;;;19.22;75.24;94940.75;4962072;28;20528;-68
2022/06/26 03:04:13;;;;;;;8.70;6.53;;;;;;;19.26;75.25;94946.47;4965273;28;20552;-68
2022/06/26 03:06:39;;;;;;;7.00;5.55;;;;;;;19.26;75.48;94935.81;4961320;28;20468;-69
2022/06/26 03:09:04;;;;;;;7.60;6.10;;;;;;;19.25;75.68;94934.19;4963968;28;20232;-68
2022/06/26 03:11:29;;;;;;;7.30;6.50;;;;;;;19.30;75.58;94937.84;4969317;28;20224;-68
2022/06/26 03:13:56;;;;;;;8.02;6.57;;;;;;;19.36;75.54;94937.00;4957855;28;20268;-68
2022/06/26 03:16:22;;;;;;;9.10;5.63;;;;;;;19.35;75.38;94938.06;4965914;28;20725;-68
2022/06/26 03:18:47;;;;;;;7.88;6.38;;;;;;;19.39;75.01;94941.94;4962488;28;20342;-68
2022/06/26 03:21:12;;;;;;;8.38;6.50;;;;;;;19.34;75.43;94951.56;4967785;28;20469;-68
2022/06/26 03:26:22;;;;;;;8.25;6.25;;;;;;;19.45;75.57;94947.47;4961124;28;20228;-68
2022/06/26 03:28:48;;;;;;;7.85;6.60;;;;;;;19.54;75.31;94959.53;4960739;28;20204;-68
2022/06/26 03:31:13;;;;;;;10.02;6.75;;;;;;;19.50;75.33;94950.31;4966682;28;20211;-68
2022/06/26 03:33:39;;;;;;;6.90;6.20;;;;;;;19.48;75.40;94961.19;4961473;28;20233;-68
2022/06/26 03:36:08;;;;;;;8.43;6.15;;;;;;;19.44;75.42;94961.81;4970593;28;20229;-69
2022/06/26 03:38:34;;;;;;;9.23;6.45;;;;;;;19.38;75.94;94956.28;4982174;28;20700;-68
2022/06/26 03:41:00;;;;;;;9.30;6.72;;;;;;;19.47;75.75;94958.75;4963728;28;20235;-68
2022/06/26 03:43:25;;;;;;;7.85;6.30;;;;;;;19.37;75.88;94962.63;4964560;28;20226;-68
2022/06/26 03:45:50;;;;;;;8.10;5.60;;;;;;;19.33;75.70;94961.44;4965012;28;20230;-67
2022/06/26 03:48:16;;;;;;;8.13;6.30;;;;;;;19.38;75.57;94955.47;4970433;28;20228;-68
2022/06/26 03:50:41;;;;;;;8.68;6.55;;;;;;;19.41;75.21;94954.25;4962226;28;20231;-68
2022/06/26 03:53:07;;;;;;;8.70;6.72;;;;;;;19.41;74.92;94959.59;4966804;28;20230;-68
2022/06/26 03:55:32;;;;;;;8.23;6.50;;;;;;;19.38;75.12;94961.63;4977181;28;20707;-68
2022/06/26 03:57:58;;;;;;;8.15;6.82;;;;;;;19.37;74.40;94964.50;4960103;28;20228;-67
2022/06/26 04:00:23;;;;;;;10.15;6.38;;;;;;;19.17;74.98;94972.53;4967861;28;20234;-67
2022/06/26 04:02:48;;;;;;;9.25;6.07;;;;;;;19.01;75.75;94965.75;4946601;28;20216;-68
2022/06/26 04:05:14;;;;;;;8.43;6.38;;;;;;;19.05;75.41;94966.16;4959693;28;20224;-68
2022/06/26 04:07:39;;;;;;;8.23;6.30;;;;;;;19.21;75.06;94975.59;4963144;28;20193;-68
2022/06/26 04:10:05;;;;;;;8.23;6.22;;;;;;;19.34;74.41;94978.25;4964791;28;20200;-68
2022/06/26 04:12:31;;;;;;;9.13;6.05;;;;;;;19.49;73.54;94976.19;4976657;28;20340;-68
2022/06/26 04:14:56;;;;;;;12.20;6.43;;;;;;;19.58;72.56;94977.59;4960029;28;20234;-69
2022/06/26 04:17:22;;;;;;;11.32;6.85;;;;;;;19.52;72.54;94977.59;4965278;28;20704;-68
2022/06/26 04:19:49;;;;;;;7.78;6.57;;;;;;;19.50;73.02;94974.31;4967097;28;20291;-67
2022/06/26 04:22:14;;;;;;;7.43;6.72;;;;;;;19.58;72.60;94971.44;4966924;28;20196;-67
2022/06/26 04:24:40;;;;;;;7.00;6.30;;;;;;;19.66;72.00;94973.91;4960917;28;20302;-68
2022/06/26 04:27:06;;;;;;;8.00;7.15;;;;;;;19.62;71.85;94972.66;4962485;28;20222;-68
2022/06/26 04:29:31;;;;;;;12.40;6.75;;;;;;;19.54;71.98;94971.03;4971851;28;20216;-68
2022/06/26 04:31:56;;;;;;;10.43;7.15;;;;;;;19.49;72.27;94972.69;4965075;28;20215;-68
2022/06/26 04:34:22;;;;;;;10.82;6.80;;;;;;;19.28;73.08;94977.22;4965103;28;20192;-68
2022/06/26 04:36:47;;;;;;;8.30;6.55;;;;;;;19.20;73.27;94964.09;4970827;28;20232;-68
2022/06/26 04:39:13;;;;;;;8.43;6.70;;;;;;;19.31;73.70;94966.13;4964822;28;20701;-68
2022/06/26 04:41:39;;;;;;;11.60;6.78;;;;;;;19.37;73.03;94970.63;4969789;28;20268;-67
2022/06/26 04:44:07;;;;;;;12.65;7.18;;;;;;;19.26;73.67;94970.47;4964487;28;20231;-65
2022/06/26 04:46:33;;;;;;;8.80;7.50;;;;;;;19.06;75.36;94973.13;4962776;28;20236;-67
2022/06/26 04:48:59;;;;;;;8.73;7.00;;;;;;;19.02;75.14;94971.91;4970590;28;20228;-68
2022/06/26 04:51:24;;;;;;;8.15;7.35;;;;;;;19.22;74.45;94971.88;4975576;28;20280;-68
2022/06/26 04:53:50;;;;;;;10.00;7.43;;;;;;;19.32;73.99;94975.78;4964167;28;20236;-68
2022/06/26 04:56:16;;;;;;;10.05;7.38;;;;;;;19.32;73.88;94975.78;4952758;28;20236;-67
2022/06/26 04:58:41;;;;;;;7.90;6.82;;;;;;;19.32;73.53;94985.63;4964206;28;20216;-67
2022/06/26 05:01:08;;;;;;;10.43;7.65;;;;;;;19.32;73.53;94988.28;4971416;28;20288;-67
2022/06/26 05:03:33;;;;;;;7.72;6.93;;;;;;;19.08;75.25;94987.06;4969238;28;20336;-67
2022/06/26 05:05:59;;;;;;;8.35;7.55;;;;;;;19.26;74.21;94994.44;4967011;28;20219;-69
2022/06/26 05:08:24;;;;;;;8.07;6.82;;;;;;;19.39;73.51;94995.25;4969260;28;20255;-67
2022/06/26 05:10:50;;;;;;;9.20;7.88;;;;;;;19.62;72.84;94988.66;4967796;28;20212;-66
2022/06/26 05:13:15;;;;;;;11.40;7.72;;;;;;;19.67;72.46;94993.38;4969990;28;20287;-67
2022/06/26 05:15:41;;;;;;;8.82;7.43;;;;;;;19.86;71.95;95000.56;4963331;28;20836;-67
2022/06/26 05:18:06;;;;;;;8.43;7.63;;;;;;;19.96;71.51;95005.44;4965177;28;20707;-68
2022/06/26 05:20:32;;;;;;;8.23;7.20;;;;;;;20.00;70.94;95004.81;4967456;28;20224;-67
2022/06/26 05:22:57;;;;;;;8.82;7.90;;;;;;;20.06;70.92;95013.81;4970982;28;20204;-67
2022/06/26 05:25:23;;;;;;;7.88;7.00;;;;;;;20.16;69.67;95011.53;4969642;28;20205;-68
2022/06/26 05:27:49;;;;;;;8.25;7.28;;;;;;;20.32;67.70;95012.09;4970302;28;20282;-68
2022/06/26 05:30:15;;;;;;;8.52;7.55;;;;;;;20.49;66.42;95010.56;4968839;28;20244;-68
2022/06/26 05:32:40;;;;;;;9.50;7.95;;;;;;;20.53;66.05;95022.47;4975442;28;20259;-67
2022/06/26 05:35:06;;;;;;;10.23;7.07;;;;;;;20.38;66.65;95028.06;4967322;28;20237;-68
2022/06/26 05:37:32;;;;;;;7.68;6.10;;;;;;;20.37;66.27;95022.94;4977382;28;20239;-68
2022/06/26 05:39:57;;;;;;;7.85;6.03;;;;;;;20.33;66.67;95027.06;4964899;28;20240;-67
2022/06/26 05:42:22;;;;;;;8.80;6.45;;;;;;;20.42;66.15;95025.78;4965054;28;20224;-69
2022/06/26 05:44:48;;;;;;;6.72;6.05;;;;;;;20.52;66.35;95023.47;4967450;28;20227;-69
2022/06/26 05:47:13;;;;;;;7.57;6.88;;;;;;;20.45;67.10;95028.88;4965825;28;20223;-68
2022/06/26 05:49:39;;;;;;;7.57;6.82;;;;;;;20.51;66.86;95024.53;4968484;28;20219;-69
2022/06/26 05:52:05;;;;;;;8.95;6.85;;;;;;;20.55;67.17;95030.28;4970636;28;20692;-69
2022/06/26 05:54:31;;;;;;;9.88;6.85;;;;;;;20.47;67.06;95025.97;4969859;28;20219;-69
2022/06/26 05:56:57;;;;;;;6.25;5.63;;;;;;;20.43;67.13;95032.78;4972798;28;20231;-69
2022/06/26 05:59:22;;;;;;;6.45;5.82;;;;;;;20.23;66.22;95033.69;4975870;28;20224;-69
2022/06/26 06:01:47;;;;;;;6.25;5.63;;;;;;;20.27;65.83;95034.88;4966650;28;20219;-68
2022/06/26 06:04:13;;;;;;;7.10;6.40;;;;;;;20.25;66.59;95044.13;4970560;28;20203;-68
2022/06/26 06:06:38;;;;;;;10.32;6.63;;;;;;;20.10;67.55;95043.56;4966695;28;20232;-66
2022/06/26 06:09:04;;;;;;;7.97;7.18;;;;;;;20.22;67.71;95042.72;4951443;28;20317;-65
2022/06/26 06:11:30;;;;;;;8.15;7.13;;;;;;;20.17;67.80;95039.03;4954983;28;20224;-65
2022/06/26 06:13:55;;;;;;;7.88;6.65;;;;;;;20.13;67.12;95037.81;4963328;28;20212;-65
2022/06/26 06:16:20;;;;;;;8.35;5.70;;;;;;;20.16;66.42;95037.41;4968754;28;20208;-65
2022/06/26 06:18:46;;;;;;;9.32;7.15;;;;;;;20.12;67.41;95039.66;4967341;28;20223;-65
2022/06/26 06:21:11;;;;;;;8.07;7.13;;;;;;;20.22;67.21;95040.03;4965575;28;20259;-65
2022/06/26 06:23:37;;;;;;;8.80;6.35;;;;;;;20.35;66.97;95049.03;4970734;28;20402;-65
2022/06/26 06:26:03;;;;;;;7.85;6.32;;;;;;;20.27;66.80;95045.56;4974166;28;20223;-66
2022/06/26 06:28:28;;;;;;;7.47;6.75;;;;;;;20.39;66.32;95047.56;4959829;28;20326;-67
2022/06/26 06:30:54;;;;;;;8.82;6.32;;;;;;;20.48;65.77;95046.31;4961478;28;20331;-69
2022/06/26 06:33:19;;;;;;;9.52;6.78;;;;;;;20.52;65.85;95047.50;4940330;28;20239;-68
2022/06/26 06:35:45;;;;;;;11.57;6.45;;;;;;;20.66;65.67;95049.13;4956182;28;20229;-69
2022/06/26 06:38:11;;;;;;;9.57;6.05;;;;;;;20.79;65.61;95050.91;4954840;28;20224;-68
2022/06/26 06:40:36;;;;;;;7.57;6.13;;;;;;;20.81;66.12;95051.50;4956470;28;20235;-70
2022/06/26 06:43:02;;;;;;;10.48;6.15;;;;;;;20.95;65.95;95048.75;4961494;28;20225;-69
2022/06/26 06:45:28;;;;;;;8.25;6.05;;;;;;;20.96;66.05;95043.22;4959771;28;20239;-68
2022/06/26 06:47:55;;;;;;;8.85;6.13;;;;;;;20.99;64.54;95042.78;4945412;28;20536;-68
2022/06/26 06:50:20;;;;;;;8.52;5.53;;;;;;;21.14;64.13;95042.44;4951902;28;20392;-69
2022/06/26 06:52:46;;;;;;;8.48;5.10;;;;;;;21.16;63.21;95048.41;4971160;28;20204;-68
2022/06/26 06:55:11;;;;;;;6.75;4.90;;;;;;;21.14;62.96;95042.44;4967648;28;20283;-68
2022/06/26 06:57:37;;;;;;;6.32;4.75;;;;;;;21.27;63.64;95044.22;4974737;28;20231;-66
2022/06/26 07:00:04;;;;;;;6.28;5.60;;;;;;;21.25;62.97;95044.44;4963594;28;20683;-66
2022/06/26 07:02:31;;;;;;;8.18;5.60;;;;;;;21.21;62.96;95035.22;4955198;28;20227;-68
2022/06/26 07:04:56;;;;;;;8.00;6.28;;;;;;;21.26;63.16;95035.38;4960287;28;20311;-68
2022/06/26 07:07:22;;;;;;;8.13;5.28;;;;;;;21.47;63.73;95038.75;4960681;28;20363;-68
2022/06/26 07:09:47;;;;;;;6.93;5.50;;;;;;;21.60;63.23;95033.28;4952627;28;20224;-67
2022/06/26 07:12:13;;;;;;;7.28;5.25;;;;;;;21.53;63.70;95029.84;4960539;28;20224;-67
2022/06/26 07:14:38;;;;;;;5.70;5.00;;;;;;;21.58;63.95;95036.16;4967706;28;20236;-66
2022/06/26 07:17:04;;;;;;;10.93;6.35;;;;;;;21.56;63.35;95030.22;4961070;28;20228;-67
2022/06/26 07:19:29;;;;;;;9.60;4.55;;;;;;;21.66;62.94;95040.44;4967098;28;20278;-68
2022/06/26 07:21:55;;;;;;;6.70;4.80;;;;;;;21.64;62.75;95036.34;4967787;28;20370;-67
2022/06/26 07:24:21;;;;;;;7.05;4.35;;;;;;;21.69;62.38;95044.53;4971217;28;20718;-67
2022/06/26 07:26:46;;;;;;;5.22;4.00;;;;;;;21.78;61.80;95036.00;4966300;28;20251;-67
2022/06/26 07:29:12;;;;;;;6.30;4.60;;;;;;;21.81;61.85;95040.06;4967228;28;20223;-67
2022/06/26 07:31:38;;;;;;;7.20;4.70;;;;;;;21.96;61.34;95029.00;4962136;28;20667;-67
2022/06/26 07:34:12;;;;;;;5.68;4.95;;;;;;;21.89;60.96;95042.47;4957678;28;20564;-68
2022/06/26 07:36:38;;;;;;;6.55;4.65;;;;;;;21.92;59.78;95036.69;4963813;28;20496;-67
2022/06/26 07:39:04;;;;;;;8.32;4.78;;;;;;;21.89;59.35;95030.94;4970939;28;20685;-67
2022/06/26 07:41:29;;;;;;;6.55;4.32;;;;;;;21.91;59.03;95032.34;4963569;28;20826;-67
2022/06/26 07:43:55;;;;;;;8.05;4.55;;;;;;;21.96;58.73;95029.81;4966247;28;20652;-66
2022/06/26 07:46:20;;;;;;;5.07;4.28;;;;;;;22.12;58.08;95031.09;4957208;28;20204;-68
2022/06/26 07:48:46;;;;;;;4.28;3.83;;;;;;;22.06;58.26;95029.31;4955534;28;20252;-68
2022/06/26 07:51:11;;;;;;;5.88;4.00;;;;;;;22.04;57.16;95026.03;4960188;28;20256;-68
2022/06/26 07:53:37;;;;;;;4.60;4.20;;;;;;;22.08;56.93;95024.56;4956730;28;20228;-66
2022/06/26 07:56:04;;;;;;;5.15;4.00;;;;;;;22.10;56.69;95029.69;4957079;28;20248;-67
2022/06/26 07:58:29;;;;;;;4.47;3.58;;;;;;;22.23;56.72;95034.91;4962941;28;20476;-67
2022/06/26 08:00:55;;;;;;;4.45;3.75;;;;;;;22.19;56.25;95031.06;4957202;28;20236;-66
2022/06/26 08:03:20;;;;;;;5.82;3.88;;;;;;;22.23;55.14;95022.34;4962643;28;20239;-66
2022/06/26 08:05:49;;;;;;;5.68;3.78;;;;;;;22.23;55.69;95029.56;4958470;28;20227;-66
2022/06/26 08:08:14;;;;;;;4.47;3.63;;;;;;;22.26;55.46;95018.41;4962853;28;20221;-66
2022/06/26 08:10:40;;;;;;;4.80;4.03;;;;;;;22.28;56.04;95019.00;4961908;28;20207;-66
2022/06/26 08:13:07;;;;;;;5.15;3.72;;;;;;;22.35;55.48;95024.28;4958276;28;20204;-66
2022/06/26 08:15:33;;;;;;;4.32;3.30;;;;;;;22.45;54.22;95025.38;4964655;28;20334;-66
2022/06/26 08:17:58;;;;;;;6.50;3.90;;;;;;;22.44;55.38;95023.75;4968499;28;20378;-67
2022/06/26 08:20:24;;;;;;;5.55;4.38;;;;;;;22.62;54.79;95022.91;4963316;28;20314;-67
2022/06/26 08:22:50;;;;;;;6.90;3.97;;;;;;;22.63;53.06;95021.03;4964153;28;20204;-68
2022/06/26 08:25:16;;;;;;;6.00;3.55;;;;;;;22.68;53.79;95023.84;4967587;28;20287;-66
2022/06/26 08:27:41;;;;;;;5.03;3.08;;;;;;;22.72;53.55;95019.69;4965591;28;20223;-67
2022/06/26 08:30:09;;;;;;;6.72;3.53;;;;;;;22.77;53.13;95018.97;4961545;28;20255;-67
2022/06/26 08:32:35;;;;;;;4.75;3.53;;;;;;;22.81;51.74;95023.66;4963688;28;20232;-67
2022/06/26 08:35:02;;;;;;;4.65;3.15;;;;;;;22.85;50.89;95027.53;4968709;28;20219;-67
2022/06/26 08:37:27;;;;;;;6.65;3.20;;;;;;;22.79;51.01;95020.38;4971719;28;20256;-67
2022/06/26 08:39:53;;;;;;;5.18;3.30;;;;;;;22.84;51.01;95027.75;4965461;28;20249;-67
2022/06/26 08:42:19;;;;;;;5.68;4.00;;;;;;;22.88;50.86;95027.09;4957558;28;20260;-68
2022/06/26 08:44:46;;;;;;;5.57;3.00;;;;;;;22.96;49.88;95025.09;4968686;28;20315;-67
2022/06/26 08:47:13;;;;;;;5.35;3.13;;;;;;;23.09;49.09;95028.47;4966468;28;20232;-66
2022/06/26 08:49:40;;;;;;;5.10;3.28;;;;;;;23.03;49.32;95020.50;4953903;28;20578;-66
2022/06/26 08:52:09;;;;;;;4.68;3.15;;;;;;;23.12;50.43;95024.47;4959003;28;20223;-67
2022/06/26 08:54:35;;;;;;;3.95;3.30;;;;;;;23.23;50.78;95021.03;4950958;28;20282;-67
2022/06/26 08:57:01;;;;;;;5.28;3.60;;;;;;;23.29;51.26;95025.47;4965697;28;20541;-67
2022/06/26 08:59:27;;;;;;;7.05;3.55;;;;;;;23.30;50.38;95026.28;4952017;28;20516;-67
2022/06/26 09:01:52;;;;;;;4.47;3.20;;;;;;;23.24;50.97;95025.34;4953314;28;20332;-68
2022/06/26 09:04:18;;;;;;;5.22;3.30;;;;;;;23.35;49.37;95018.34;4967452;28;20205;-68
2022/06/26 09:06:44;;;;;;;4.10;3.20;;;;;;;23.43;48.35;95017.19;4970504;28;20492;-68
2022/06/26 09:09:25;;;;;;;4.35;3.65;;;;;;;23.44;48.58;95022.34;4969502;28;20228;-69
2022/06/26 09:11:55;;;;;;;4.95;3.47;;;;;;;23.51;48.52;95012.28;4971254;28;20219;-68
2022/06/26 09:14:22;;;;;;;5.15;3.53;;;;;;;23.39;48.76;95016.00;4963772;28;20224;-68
2022/06/26 09:16:50;;;;;;;4.22;3.80;;;;;;;23.47;50.09;95012.97;4958063;28;20587;-68
2022/06/26 09:19:24;;;;;;;4.97;4.47;;;;;;;23.69;49.60;95008.69;4961304;28;20200;-68
2022/06/26 09:21:51;;;;;;;4.70;3.65;;;;;;;23.55;50.82;95009.97;4962336;28;20243;-68
2022/06/26 09:24:21;;;;;;;4.03;3.72;;;;;;;23.62;49.69;95007.16;4969760;28;20624;-68
2022/06/26 09:27:10;;;;;;;4.65;3.95;;;;;;;23.65;50.23;95007.50;4959407;28;20220;-68
2022/06/26 09:29:36;;;;;;;4.53;3.65;;;;;;;23.64;50.90;95005.88;4963007;28;20228;-68
2022/06/26 09:32:13;;;;;;;3.90;3.33;;;;;;;23.74;47.89;95011.53;4965071;28;20254;-69
2022/06/26 09:34:50;;;;;;;4.63;3.28;;;;;;;23.78;48.18;95001.13;4967440;28;20212;-67
2022/06/26 09:37:16;;;;;;;4.10;3.70;;;;;;;24.05;48.92;95000.63;4962864;28;20244;-67
2022/06/26 09:39:42;;;;;;;6.40;3.92;;;;;;;24.22;49.20;95001.53;4956615;28;20247;-67
2022/06/26 09:42:17;;;;;;;4.13;3.20;;;;;;;24.37;46.41;95001.03;4968937;28;20235;-67
2022/06/26 09:44:53;;;;;;;3.72;3.00;;;;;;;24.54;45.47;95009.16;4970519;28;20239;-68
2022/06/26 09:47:27;;;;;;;4.28;3.13;;;;;;;24.61;44.18;95013.34;4969417;28;20969;-67
2022/06/26 09:49:55;;;;;;;3.65;3.33;;;;;;;24.51;45.30;95009.66;4964904;28;20232;-67
2022/06/26 09:52:22;;;;;;;4.68;3.40;;;;;;;24.82;45.68;95014.56;4968283;28;20211;-67
2022/06/26 09:54:48;;;;;;;5.47;3.50;;;;;;;24.85;44.36;95015.94;4968179;28;20219;-66
2022/06/26 09:57:14;;;;;;;5.95;4.50;;;;;;;24.93;44.74;95010.19;4960408;28;20319;-67
2022/06/26 09:59:41;;;;;;;4.10;2.97;;;;;;;25.20;44.43;95023.06;4965716;28;20282;-66
2022/06/26 10:07:53;;;;;;;3.60;2.72;;;;;;;25.79;42.28;94999.22;4966648;28;20302;-68
2022/06/26 10:10:24;;;;;;;3.15;2.83;;;;;;;25.56;41.83;94999.44;4972849;28;20207;-68
2022/06/26 10:12:55;;;;;;;3.40;2.53;;;;;;;25.57;41.85;95003.75;4960502;28;20648;-69
2022/06/26 10:15:25;;;;;;;3.30;2.95;;;;;;;25.60;40.50;95001.38;4964310;28;20236;-67
2022/06/26 10:18:06;;;;;;;4.45;2.60;;;;;;;25.85;40.83;94997.44;4964929;28;20232;-67
2022/06/26 10:20:32;;;;;;;4.38;2.83;;;;;;;25.94;39.84;94983.31;4964156;28;20836;-68
2022/06/26 10:22:58;;;;;;;3.20;2.90;;;;;;;25.99;40.46;94981.75;4959653;28;20216;-67
2022/06/26 10:25:33;;;;;;;4.78;2.55;;;;;;;26.14;40.70;94979.25;4973931;28;20242;-67
2022/06/26 10:28:00;;;;;;;4.78;2.95;;;;;;;26.25;40.87;94981.03;4961985;28;20227;-68
2022/06/26 10:30:27;;;;;;;5.82;3.20;;;;;;;26.04;39.40;94973.75;4962392;28;20311;-67
2022/06/26 10:33:14;;;;;;;3.75;2.55;;;;;;;25.95;39.76;94976.88;4962185;28;20295;-68
2022/06/26 10:35:43;;;;;;;6.40;2.63;;;;;;;25.92;40.03;94976.53;4962548;28;20231;-67
2022/06/26 10:38:25;;;;;;;4.03;2.60;;;;;;;26.31;39.70;94965.72;4970029;28;20246;-69
2022/06/26 10:44:00;;;;;;;3.05;2.28;;;;;;;26.66;36.17;94969.94;4960993;28;20223;-67
2022/06/26 10:46:34;;;;;;;4.82;2.20;;;;;;;26.75;35.84;94969.19;4967100;28;20220;-68
2022/06/26 10:49:00;;;;;;;4.68;2.72;;;;;;;26.92;35.96;94968.28;4965357;28;20384;-66
2022/06/26 10:51:29;;;;;;;3.53;2.70;;;;;;;26.92;37.45;94962.88;4964411;28;20236;-66
2022/06/26 10:53:55;;;;;;;3.92;2.67;;;;;;;26.91;37.19;94958.56;4963184;28;20227;-66
2022/06/26 10:56:21;;;;;;;5.28;3.50;;;;;;;27.10;36.91;94964.41;4968107;28;20231;-67
2022/06/26 10:58:48;;;;;;;5.55;3.53;;;;;;;27.21;38.19;94960.75;4959192;28;20216;-65
2022/06/26 11:01:16;;;;;;;6.05;4.32;;;;;;;27.35;38.04;94963.84;4967036;28;20228;-68
2022/06/26 11:03:42;;;;;;;5.80;5.00;;;;;;;27.24;37.00;94962.94;4955767;28;20448;-68
2022/06/26 11:06:15;;;;;;;5.85;4.35;;;;;;;27.34;36.76;94964.91;4970027;28;20264;-66
2022/06/26 11:08:46;;;;;;;4.80;3.60;;;;;;;27.65;36.11;94964.06;4955420;28;20423;-68
2022/06/26 11:11:19;;;;;;;5.72;3.60;;;;;;;27.65;35.26;94958.66;4966692;28;20224;-66
2022/06/26 11:14:08;;;;;;;3.90;3.08;;;;;;;27.63;34.64;94951.88;4965293;28;20830;-66
2022/06/26 11:16:34;;;;;;;4.32;3.30;;;;;;;27.77;35.15;94957.63;4967712;28;20208;-66
2022/06/26 11:19:01;;;;;;;3.13;2.80;;;;;;;27.85;34.25;94955.31;4962949;28;20560;-66
2022/06/26 11:21:27;;;;;;;3.95;2.78;;;;;;;28.06;33.49;94952.69;4961536;28;20244;-67
2022/06/26 11:23:53;;;;;;;3.90;2.63;;;;;;;28.12;34.51;94951.63;4963739;28;20233;-67
2022/06/26 11:26:21;;;;;;;3.40;2.35;;;;;;;28.23;33.53;94955.19;4965883;28;20223;-67
2022/06/26 11:28:54;;;;;;;4.22;2.67;;;;;;;27.73;34.47;94957.34;4961555;28;20204;-68
2022/06/26 11:31:22;;;;;;;3.22;2.50;;;;;;;27.94;34.15;94961.03;4968243;28;20292;-67
2022/06/26 11:33:48;;;;;;;4.10;2.60;;;;;;;28.50;33.64;94958.59;4961173;28;20230;-67
2022/06/26 11:36:16;;;;;;;5.32;2.35;;;;;;;29.03;32.44;94956.53;4957196;28;20228;-67
2022/06/26 11:38:55;;;;;;;2.13;1.90;;;;;;;29.27;29.84;94950.63;4962750;28;20235;-67
2022/06/26 11:41:22;;;;;;;2.90;2.30;;;;;;;29.24;30.48;94951.97;4955265;28;20254;-67
2022/06/26 11:43:54;;;;;;;3.42;2.10;;;;;;;29.31;31.91;94965.25;4960709;28;20231;-67
2022/06/26 11:46:20;;;;;;;2.20;2.10;;;;;;;29.45;31.04;94958.19;4957458;28;20234;-68